Terminal Aerodrome Forecast
Issued by NWS

Home | Current Version | Previous Version | Text Only | Print | Product List | Glossary On
Versions: 1 2 3 4 5 6 7 8 9 10 11 12 13 14 15 16 17
000
FTUS45 KABQ 250721 AAA
TAFTCC
TAF AMD
KTCC 250721Z 2507/2606 18012KT P6SM VCSH BKN025
      TEMPO 2508/2511 VRB20G30KT 4SM -TSRA OVC012CB
     FM251600 03008KT P6SM VCSH SCT050
     FM252200 08010KT P6SM VCTS BKN030CB
     FM260000 05010KT P6SM VCSH BKN030=

USA.gov is the U.S. government's official web portal to all federal, state and local government web resources and services.